Plain Dealing, Louisiana
Current Conditions -  °F | °C
As of 8:53 AM on Monday 22 Dec 2014 (Local Time) from KDTN Reporting Station
Haze Haze  
Wind Chill: 52°   Ceiling: 600
Heat Index: 52°   Visibility: 5mi
Dew Point: 49°   Wind: 10mph
Humidity: 89%   Direction: 160°SSE
Pressure: 29.73"   Gusts: NA
Location:  32.91°N, 93.7°W
Report Text: KDTN 221453Z 16009KT 5SM BR OVC006 11/09 A2973 RMK AO2 SLP066 T01110094 58004
Loading
Personal Weather Stations






























Interactive Weather Map New forecast layout! Learn more

10-Day Weather Forecast

Advertisements
Track Severe Weather on mobile